createdAt,value
2023-02-03T00:02:04.280Z,1.13
2023-02-03T00:04:31.240Z,1.50
2023-02-03T00:06:58.282Z,1.98
2023-02-03T00:09:25.967Z,1.58
2023-02-03T00:11:53.872Z,2.22
2023-02-03T00:14:20.762Z,2.10
2023-02-03T00:16:47.806Z,1.30
2023-02-03T00:19:17.307Z,1.23
2023-02-03T00:21:44.808Z,1.20
2023-02-03T00:24:11.922Z,1.70
2023-02-03T00:26:42.910Z,1.77
2023-02-03T00:29:10.210Z,1.38
2023-02-03T00:31:37.395Z,1.83
2023-02-03T00:34:06.105Z,0.98
2023-02-03T00:36:33.430Z,1.20
2023-02-03T00:39:01.540Z,2.00
2023-02-03T00:41:31.641Z,2.30
2023-02-03T00:43:59.029Z,1.75
2023-02-03T00:46:26.120Z,1.52
2023-02-03T00:48:53.177Z,1.08
2023-02-03T00:51:20.111Z,1.52
2023-02-03T00:53:47.986Z,1.50
2023-02-03T00:56:15.246Z,1.63
2023-02-03T00:58:42.375Z,1.77
2023-02-03T01:01:10.637Z,1.08
2023-02-03T01:03:37.968Z,1.48
2023-02-03T01:06:12.251Z,1.38
2023-02-03T01:08:39.450Z,2.25
2023-02-03T01:11:11.061Z,1.65
2023-02-03T01:13:38.061Z,2.03
2023-02-03T01:16:11.010Z,1.50
2023-02-03T01:18:38.300Z,1.27
2023-02-03T01:21:11.464Z,1.27
2023-02-03T01:23:38.382Z,1.75
2023-02-03T01:26:07.465Z,1.85
2023-02-03T01:28:34.851Z,1.95
2023-02-03T01:31:24.575Z,1.80
2023-02-03T01:33:55.538Z,1.20
2023-02-03T01:36:26.403Z,2.08
2023-02-03T01:38:54.508Z,2.00
2023-02-03T01:41:25.371Z,2.13
2023-02-03T01:43:55.234Z,1.50
2023-02-03T01:46:28.637Z,2.00
2023-02-03T01:49:29.861Z,1.10
2023-02-03T01:51:57.040Z,1.40
2023-02-03T01:54:29.745Z,1.60
2023-02-03T01:57:06.442Z,2.13
2023-02-03T01:59:34.909Z,1.60
2023-02-03T02:02:04.249Z,1.95
2023-02-03T02:04:56.858Z,1.35
2023-02-03T02:07:25.245Z,1.45
2023-02-03T02:09:52.451Z,1.52
2023-02-03T02:12:19.359Z,1.52
2023-02-03T02:14:48.083Z,2.00
2023-02-03T02:17:33.485Z,2.20
2023-02-03T02:20:20.742Z,1.30
2023-02-03T02:23:22.961Z,1.63
2023-02-03T02:25:52.455Z,1.38
2023-02-03T02:28:41.895Z,1.45
2023-02-03T02:31:17.974Z,1.85
2023-02-03T02:34:02.639Z,2.30
2023-02-03T02:36:50.779Z,1.80
2023-02-03T02:39:29.944Z,1.20
2023-02-03T02:42:01.572Z,1.40
2023-02-03T02:45:01.094Z,1.90
2023-02-03T02:47:28.643Z,2.08
2023-02-03T02:50:03.855Z,3.47
2023-02-03T02:52:34.359Z,2.28
2023-02-03T02:55:10.240Z,1.70
2023-02-03T02:57:39.328Z,1.58
2023-02-03T03:00:07.652Z,2.30
2023-02-03T03:02:36.480Z,1.58
2023-02-03T03:05:08.056Z,2.58
2023-02-03T03:07:51.451Z,1.50
2023-02-03T03:10:24.811Z,1.45
2023-02-03T03:12:59.577Z,1.92
2023-02-03T03:15:31.166Z,2.10
2023-02-03T03:18:04.991Z,2.13
2023-02-03T03:20:33.975Z,1.20
2023-02-03T03:23:07.174Z,2.00
2023-02-03T03:25:43.447Z,1.45
2023-02-03T03:28:16.458Z,2.28
2023-02-03T03:30:43.932Z,2.60
2023-02-03T03:33:10.977Z,1.80
2023-02-03T03:35:45.902Z,2.15
2023-02-03T03:38:25.228Z,1.35
2023-02-03T03:41:00.591Z,1.20
2023-02-03T03:43:32.483Z,1.92
2023-02-03T03:46:11.767Z,1.85
2023-02-03T03:49:01.854Z,2.40
2023-02-03T03:51:35.184Z,1.88
2023-02-03T03:54:06.000Z,1.13
2023-02-03T03:56:40.585Z,1.20
2023-02-03T03:59:10.134Z,1.23
2023-02-03T04:01:38.784Z,1.30
2023-02-03T04:04:09.558Z,1.70
2023-02-03T04:06:39.238Z,1.50
2023-02-03T04:09:06.736Z,2.20
2023-02-03T04:11:52.081Z,1.10
2023-02-03T04:14:19.093Z,2.22
2023-02-03T04:16:46.093Z,1.88
2023-02-03T04:19:13.055Z,2.22
2023-02-03T04:21:40.139Z,2.10
2023-02-03T04:24:07.497Z,2.17
2023-02-03T04:26:34.463Z,2.17
2023-02-03T04:29:01.371Z,2.08
2023-02-03T04:31:28.382Z,2.17
2023-02-03T04:33:55.435Z,1.88
2023-02-03T04:36:22.382Z,2.15
2023-02-03T04:38:50.055Z,2.05
2023-02-03T04:41:17.223Z,1.90
2023-02-03T04:43:44.324Z,1.90
2023-02-03T04:46:11.443Z,1.90
2023-02-03T04:48:38.696Z,2.47
2023-02-03T04:51:07.520Z,2.42
2023-02-03T04:53:35.568Z,2.05
2023-02-03T04:56:02.494Z,2.15
2023-02-03T04:58:29.422Z,1.35
2023-02-03T05:00:56.435Z,2.20
2023-02-03T05:03:25.810Z,2.38
2023-02-03T05:05:56.530Z,1.92
2023-02-03T05:08:23.467Z,2.00
2023-02-03T05:10:50.356Z,2.67
2023-02-03T05:13:17.407Z,2.17
2023-02-03T05:15:44.254Z,2.10
2023-02-03T05:18:11.176Z,1.48
2023-02-03T05:20:38.082Z,1.77
2023-02-03T05:23:04.979Z,1.70
2023-02-03T05:25:32.157Z,1.90
2023-02-03T05:27:59.193Z,1.38
2023-02-03T05:30:26.492Z,1.67
2023-02-03T05:32:53.772Z,1.35
2023-02-03T05:35:20.770Z,1.92
2023-02-03T05:37:49.156Z,1.90
2023-02-03T05:40:34.566Z,2.00
2023-02-03T05:43:01.513Z,1.55
2023-02-03T05:45:28.499Z,1.50
2023-02-03T05:47:55.432Z,2.13
2023-02-03T05:50:23.027Z,1.58
2023-02-03T05:52:50.669Z,2.63
2023-02-03T05:55:17.684Z,1.20
2023-02-03T05:57:44.620Z,1.20
2023-02-03T06:00:12.250Z,1.38
2023-02-03T06:02:39.155Z,1.85
2023-02-03T06:05:06.559Z,1.70
2023-02-03T06:07:33.455Z,2.22
2023-02-03T06:10:00.333Z,1.83
2023-02-03T06:12:29.135Z,1.60
2023-02-03T06:14:56.293Z,1.75
2023-02-03T06:17:23.343Z,1.33
2023-02-03T06:19:50.241Z,1.45
2023-02-03T06:22:17.134Z,1.83
2023-02-03T06:24:46.266Z,2.47
2023-02-03T06:27:13.187Z,2.17
2023-02-03T06:29:41.268Z,2.13
2023-02-03T06:32:08.992Z,2.05
2023-02-03T06:34:36.326Z,1.55
2023-02-03T06:37:03.473Z,1.92
2023-02-03T06:39:30.435Z,2.30
2023-02-03T06:41:57.404Z,2.15
2023-02-03T06:44:24.327Z,2.20
2023-02-03T06:46:51.405Z,1.90
2023-02-03T06:49:19.019Z,2.00
2023-02-03T06:51:46.616Z,2.10
2023-02-03T06:54:14.199Z,2.22
2023-02-03T06:56:41.394Z,1.80
2023-02-03T06:59:09.095Z,1.65
2023-02-03T07:01:37.039Z,2.03
2023-02-03T07:04:04.774Z,2.28
2023-02-03T07:06:34.179Z,1.70
2023-02-03T07:09:02.978Z,2.03
2023-02-03T07:11:31.006Z,2.95
2023-02-03T07:13:58.170Z,1.65
2023-02-03T07:16:25.337Z,1.67
2023-02-03T07:18:52.260Z,2.22
2023-02-03T07:21:19.487Z,1.52
2023-02-03T07:23:49.896Z,1.80
2023-02-03T07:26:17.863Z,2.65
2023-02-03T07:28:45.347Z,2.35
2023-02-03T07:31:12.386Z,1.40
2023-02-03T07:33:39.951Z,1.42
2023-02-03T07:36:08.058Z,2.13
2023-02-03T07:38:35.044Z,1.48
2023-02-03T07:41:01.948Z,1.70
2023-02-03T07:43:29.210Z,2.22
2023-02-03T07:45:56.153Z,2.17
2023-02-03T07:48:23.348Z,2.13
2023-02-03T07:50:50.978Z,2.10
2023-02-03T07:53:17.922Z,2.22
2023-02-03T07:55:44.894Z,1.20
2023-02-03T07:58:11.898Z,1.83
2023-02-03T08:00:38.854Z,2.15
2023-02-03T08:03:05.732Z,2.63
2023-02-03T08:05:33.048Z,1.95
2023-02-03T08:08:00.309Z,1.33
2023-02-03T08:10:27.577Z,2.00
2023-02-03T08:12:56.062Z,1.65
2023-02-03T08:15:22.989Z,2.42
2023-02-03T08:17:50.308Z,1.92
2023-02-03T08:20:17.718Z,1.63
2023-02-03T08:22:45.206Z,1.70
2023-02-03T08:25:12.838Z,1.98
2023-02-03T08:27:40.780Z,2.50
2023-02-03T08:30:10.381Z,1.98
2023-02-03T08:32:37.323Z,1.77
2023-02-03T08:35:04.567Z,1.77
2023-02-03T08:37:32.823Z,2.10
2023-02-03T08:40:00.230Z,2.42
2023-02-03T08:42:27.499Z,2.08
2023-02-03T08:44:54.408Z,2.45
2023-02-03T08:47:21.457Z,1.90
2023-02-03T08:49:48.464Z,2.47
2023-02-03T08:52:18.056Z,1.52
2023-02-03T08:54:46.961Z,1.50
2023-02-03T08:57:14.091Z,2.00
2023-02-03T08:59:43.076Z,1.98
2023-02-03T09:02:15.638Z,2.10
2023-02-03T09:04:42.799Z,1.67
2023-02-03T09:07:09.891Z,1.63
2023-02-03T09:09:37.621Z,1.92
2023-02-03T09:12:07.313Z,2.10
2023-02-03T09:14:35.132Z,2.03
2023-02-03T09:17:04.127Z,1.90
2023-02-03T09:19:34.277Z,1.67
2023-02-03T09:22:02.234Z,1.45
2023-02-03T09:24:29.371Z,1.52
2023-02-03T09:26:57.316Z,1.30
2023-02-03T09:29:24.421Z,1.63
2023-02-03T09:31:53.028Z,1.50
2023-02-03T09:34:21.028Z,1.55
2023-02-03T09:36:48.225Z,1.48
2023-02-03T09:39:15.923Z,1.38
2023-02-03T09:41:51.578Z,1.20
2023-02-03T10:17:23.678Z,1.53
2023-02-03T10:20:02.908Z,1.38
2023-02-03T10:22:32.498Z,1.50
2023-02-03T10:25:08.389Z,1.67
2023-02-03T10:27:37.543Z,1.10
2023-02-03T10:30:16.184Z,1.02
2023-02-03T10:32:43.191Z,1.48
2023-02-03T10:35:13.675Z,1.20
2023-02-03T10:37:48.303Z,1.67
2023-02-03T10:40:17.242Z,1.50
2023-02-03T10:43:06.941Z,0.77
2023-02-03T10:45:37.780Z,1.20
2023-02-03T10:48:07.402Z,1.48
2023-02-03T10:50:35.843Z,1.35
2023-02-03T10:53:32.606Z,1.50
2023-02-03T10:56:09.156Z,1.52
2023-02-03T10:58:39.430Z,1.55
2023-02-03T11:01:14.252Z,1.40
2023-02-03T11:03:55.210Z,1.52
2023-02-03T11:06:22.250Z,1.65
2023-02-03T11:08:51.364Z,1.48
2023-02-03T11:11:34.276Z,1.45
2023-02-03T11:14:13.239Z,1.40
2023-02-03T11:16:43.409Z,1.55
2023-02-03T11:19:21.301Z,1.13
2023-02-03T11:21:51.864Z,1.42
2023-02-03T11:24:26.764Z,1.17
2023-02-03T11:27:14.846Z,1.70
2023-02-03T11:29:47.875Z,1.67
2023-02-03T11:32:36.157Z,1.90
2023-02-03T11:35:23.744Z,1.50
2023-02-03T11:37:52.149Z,1.67
2023-02-03T11:40:22.172Z,2.08
2023-02-03T11:42:49.020Z,2.05
2023-02-03T11:45:26.822Z,1.52
2023-02-03T11:47:58.611Z,1.90
2023-02-03T11:50:28.779Z,2.00
2023-02-03T11:53:22.918Z,2.60
2023-02-03T11:55:59.059Z,1.85
2023-02-03T11:58:50.561Z,1.92
2023-02-03T12:01:25.844Z,1.67
2023-02-03T12:04:17.008Z,1.88
2023-02-03T12:06:43.983Z,2.10
2023-02-03T12:09:35.800Z,2.00
2023-02-03T12:12:17.953Z,1.90
2023-02-03T12:15:06.030Z,1.75
2023-02-03T12:17:35.607Z,2.03
2023-02-03T12:20:02.489Z,1.60
2023-02-03T12:22:51.876Z,1.38
2023-02-03T12:25:41.525Z,1.63
2023-02-03T12:28:23.727Z,1.75
2023-02-03T12:31:09.587Z,1.98
2023-02-03T12:33:45.000Z,1.27
2023-02-03T12:36:18.935Z,2.15
2023-02-03T12:39:05.816Z,1.40
2023-02-03T12:41:38.455Z,1.75
2023-02-03T12:44:14.205Z,2.03
2023-02-03T12:46:47.596Z,1.80
2023-02-03T12:49:23.704Z,1.60
2023-02-03T12:52:00.366Z,1.98
2023-02-03T12:55:08.630Z,1.70
2023-02-03T12:57:35.486Z,1.42
2023-02-03T13:00:27.147Z,1.40
2023-02-03T13:03:09.188Z,1.77
2023-02-03T13:05:44.018Z,1.60
2023-02-03T13:08:23.015Z,1.50
2023-02-03T13:10:57.265Z,1.40
2023-02-03T13:13:35.026Z,1.33
2023-02-03T13:16:08.118Z,1.52
2023-02-03T13:18:39.014Z,1.50
2023-02-03T13:21:06.092Z,1.23
2023-02-03T13:23:33.086Z,1.75
2023-02-03T13:26:30.971Z,1.30
2023-02-03T13:29:13.160Z,1.13
2023-02-03T13:32:00.683Z,1.48
2023-02-03T13:34:53.661Z,1.60
2023-02-03T13:37:45.356Z,1.50
2023-02-03T13:40:36.575Z,1.08
2023-02-03T13:43:11.434Z,1.30
2023-02-03T13:45:45.372Z,1.48
2023-02-03T13:48:23.602Z,1.67
2023-02-03T13:51:02.757Z,1.70
2023-02-03T13:53:36.399Z,1.38
2023-02-03T13:56:06.727Z,1.20
2023-02-03T13:58:37.367Z,1.00
2023-02-03T14:01:31.052Z,1.83
2023-02-03T14:03:58.596Z,2.00
2023-02-03T14:06:40.827Z,1.30
2023-02-03T14:09:24.336Z,1.80
2023-02-03T14:11:52.199Z,1.42
2023-02-03T14:14:20.876Z,1.33
2023-02-03T14:16:54.290Z,1.30
2023-02-03T14:19:21.689Z,1.40
2023-02-03T14:21:53.369Z,1.50
2023-02-03T14:24:21.864Z,1.10
2023-02-03T14:26:52.256Z,0.75
2023-02-03T14:29:29.661Z,0.90
2023-02-03T14:32:08.084Z,0.80
2023-02-03T14:34:38.958Z,0.93
2023-02-03T14:37:24.103Z,0.90
2023-02-03T14:40:23.454Z,0.82
2023-02-03T14:43:09.437Z,0.70
2023-02-03T14:45:55.014Z,0.93
2023-02-03T14:48:40.941Z,0.90
2023-02-03T14:51:25.192Z,1.17
2023-02-03T14:53:59.983Z,0.75
2023-02-03T14:57:32.886Z,1.50
2023-02-03T15:00:02.459Z,1.77
2023-02-03T15:02:31.376Z,1.50
2023-02-03T15:05:18.528Z,1.30
2023-02-03T15:07:49.496Z,1.10
2023-02-03T15:10:27.047Z,0.95
2023-02-03T15:12:57.095Z,1.10
2023-02-03T15:15:28.377Z,1.13
2023-02-03T15:17:58.114Z,1.38
2023-02-03T15:20:41.632Z,1.20
2023-02-03T15:23:22.631Z,1.55
2023-02-03T15:25:58.320Z,0.98
2023-02-03T15:28:27.362Z,1.03
2023-02-03T15:30:57.980Z,1.40
2023-02-03T15:33:25.415Z,1.73
2023-02-03T15:36:02.021Z,2.00
2023-02-03T15:38:42.164Z,2.28
2023-02-03T15:41:20.926Z,1.40
2023-02-03T15:43:52.465Z,1.98
2023-02-03T15:46:37.435Z,1.67
2023-02-03T15:49:16.616Z,2.00
2023-02-03T15:51:49.993Z,1.42
2023-02-03T15:54:24.964Z,1.50
2023-02-03T15:57:10.976Z,1.40
2023-02-03T15:59:52.569Z,1.90
2023-02-03T16:02:22.080Z,2.42
2023-02-03T16:04:50.894Z,3.47
2023-02-03T16:07:30.146Z,3.63
2023-02-03T16:09:58.849Z,3.33
2023-02-03T16:12:33.431Z,3.45
2023-02-03T16:15:02.038Z,3.85
2023-02-03T16:17:33.976Z,3.92
2023-02-03T16:20:13.324Z,3.15
2023-02-03T16:22:41.287Z,4.15
2023-02-03T16:25:20.301Z,4.05
2023-02-03T16:28:20.802Z,5.25
2023-02-03T16:31:19.573Z,5.05
2023-02-03T16:34:07.702Z,4.20
2023-02-03T16:36:59.472Z,4.70
2023-02-03T16:39:45.786Z,6.90
2023-02-03T16:42:37.275Z,7.75
2023-02-03T16:45:31.540Z,6.72
2023-02-03T16:48:17.709Z,4.38
2023-02-03T16:50:58.245Z,1.95
2023-02-03T16:53:32.297Z,2.10
2023-02-03T16:56:01.916Z,2.03
2023-02-03T16:58:28.889Z,2.20
2023-02-03T17:00:58.154Z,2.15
2023-02-03T17:03:27.527Z,2.10
2023-02-03T17:05:55.643Z,2.10
2023-02-03T17:08:25.430Z,2.30
2023-02-03T17:10:52.662Z,2.53
2023-02-03T17:13:21.613Z,2.75
2023-02-03T17:15:52.847Z,2.58
2023-02-03T17:18:19.945Z,2.25
2023-02-03T17:20:47.702Z,3.25
2023-02-03T17:23:18.076Z,2.63
2023-02-03T17:25:47.558Z,2.60
2023-02-03T17:28:14.766Z,1.92
2023-02-03T17:30:42.705Z,1.90
2023-02-03T17:33:13.563Z,2.10
2023-02-03T17:35:45.081Z,2.10
2023-02-03T17:38:14.129Z,2.08
2023-02-03T17:54:33.133Z,1.90
2023-02-03T17:57:00.084Z,1.90
2023-02-03T17:59:27.156Z,1.77
2023-02-03T18:01:54.220Z,1.77
2023-02-03T18:04:21.196Z,1.63
2023-02-03T18:06:48.171Z,1.70
2023-02-03T18:09:16.792Z,1.67
2023-02-03T18:11:45.890Z,1.60
2023-02-03T18:14:15.128Z,1.60
2023-02-03T18:16:42.798Z,1.50
2023-02-03T18:19:14.350Z,1.63
2023-02-03T18:21:42.924Z,1.65
2023-02-03T18:24:12.039Z,1.50
2023-02-03T18:26:51.119Z,1.70
2023-02-03T18:29:18.747Z,1.50
2023-02-03T18:31:46.374Z,1.80
2023-02-03T18:34:13.821Z,2.15
2023-02-03T18:39:14.778Z,2.25
2023-02-03T18:41:42.396Z,2.08
2023-02-03T18:44:09.669Z,1.95
2023-02-03T18:46:36.828Z,2.25
2023-02-03T18:49:04.116Z,1.98
2023-02-03T18:51:31.074Z,1.73
2023-02-03T18:53:59.680Z,1.80
2023-02-03T18:56:35.341Z,2.25
2023-02-03T18:59:08.828Z,2.70
2023-02-03T19:01:39.008Z,2.28
2023-02-03T19:04:06.568Z,2.40
2023-02-03T19:06:34.923Z,2.30
2023-02-03T19:09:02.568Z,1.95
2023-02-03T19:11:29.928Z,2.88
2023-02-03T19:13:57.093Z,2.10
2023-02-03T19:16:24.111Z,2.25
2023-02-03T19:18:51.328Z,2.45
2023-02-03T19:21:18.466Z,2.05
2023-02-03T19:23:45.649Z,2.20
2023-02-03T19:26:12.652Z,2.47
2023-02-03T19:28:41.185Z,2.78
2023-02-03T19:31:11.344Z,2.50
2023-02-03T19:33:39.070Z,2.83
2023-02-03T19:36:07.008Z,2.60
2023-02-03T19:38:34.612Z,2.35
2023-02-03T19:41:02.681Z,2.45
2023-02-03T19:43:33.219Z,2.75
2023-02-03T19:46:00.600Z,2.20
2023-02-03T19:48:28.491Z,2.22
2023-02-03T19:50:56.041Z,2.13
2023-02-03T19:53:24.480Z,2.00
2023-02-03T19:55:51.654Z,2.35
2023-02-03T19:58:19.020Z,2.10
2023-02-03T20:00:46.163Z,2.33
2023-02-03T20:03:13.364Z,2.63
2023-02-03T20:05:40.664Z,2.60
2023-02-03T20:08:07.868Z,2.22
2023-02-03T20:10:34.898Z,2.17
2023-02-03T20:13:01.810Z,2.78
2023-02-03T20:15:28.830Z,2.28
2023-02-03T20:17:56.365Z,2.33
2023-02-03T20:20:23.392Z,2.03
2023-02-03T20:22:50.577Z,2.40
2023-02-03T20:25:18.547Z,2.65
2023-02-03T20:27:45.741Z,2.97
2023-02-03T20:30:13.216Z,3.00
2023-02-03T20:32:40.183Z,2.50
2023-02-03T20:35:07.596Z,2.15
2023-02-03T20:37:36.289Z,2.75
2023-02-03T20:40:12.450Z,3.22
2023-02-03T20:42:39.454Z,2.67
2023-02-03T20:45:13.908Z,2.38
2023-02-03T20:47:41.014Z,1.90
2023-02-03T20:50:18.550Z,2.05
2023-02-03T20:52:47.014Z,2.60
2023-02-03T20:55:19.208Z,2.20
2023-02-03T20:57:50.380Z,2.17
2023-02-03T21:00:20.672Z,2.05
2023-02-03T21:03:06.052Z,2.00
2023-02-03T21:05:36.867Z,2.15
2023-02-03T21:08:14.735Z,2.38
2023-02-03T21:10:42.331Z,2.80
2023-02-03T21:13:29.908Z,2.50
2023-02-03T21:16:04.617Z,2.35
2023-02-03T21:18:55.165Z,1.92
2023-02-03T21:21:35.044Z,1.95
2023-02-03T21:24:16.993Z,1.80
2023-02-03T21:26:43.995Z,2.13
2023-02-03T21:29:24.517Z,2.08
2023-02-03T21:31:52.776Z,1.92
2023-02-03T21:34:27.743Z,1.88
2023-02-03T21:36:56.032Z,1.88
2023-02-03T21:39:33.360Z,1.85
2023-02-03T21:42:43.814Z,2.00
2023-02-03T21:45:17.151Z,1.92
2023-02-03T21:47:45.566Z,2.08
2023-02-03T21:50:33.285Z,2.10
2023-02-03T21:53:09.494Z,2.10
2023-02-03T21:55:37.815Z,2.13
2023-02-03T21:58:17.288Z,1.92
2023-02-03T22:00:48.191Z,2.20
2023-02-03T22:03:27.231Z,1.73
2023-02-03T22:06:06.073Z,2.20
2023-02-03T22:08:36.851Z,2.13
2023-02-03T22:11:04.263Z,1.77
2023-02-03T22:13:31.365Z,2.00
2023-02-03T22:15:58.384Z,1.55
2023-02-03T22:18:26.114Z,1.58
2023-02-03T22:20:53.807Z,1.75
2023-02-03T22:23:21.157Z,1.52
2023-02-03T22:25:48.278Z,1.60
2023-02-03T22:28:15.616Z,2.10
2023-02-03T22:30:42.770Z,1.48
2023-02-03T22:33:09.718Z,1.95
2023-02-03T22:35:36.711Z,1.15
2023-02-03T22:38:03.722Z,2.13
2023-02-03T22:40:30.898Z,1.88
2023-02-03T22:42:58.091Z,1.83
2023-02-03T22:45:24.979Z,1.60
2023-02-03T22:47:51.900Z,1.80
2023-02-03T22:50:27.427Z,1.50
2023-02-03T22:53:04.268Z,1.60
2023-02-03T22:55:31.704Z,1.80
2023-02-03T22:57:59.414Z,1.80
2023-02-03T23:00:27.085Z,1.65
2023-02-03T23:02:54.489Z,1.90
2023-02-03T23:05:22.180Z,1.95
2023-02-03T23:07:49.835Z,2.60
2023-02-03T23:10:26.364Z,1.90
2023-02-03T23:15:20.300Z,3.05
2023-02-03T23:17:47.280Z,4.00
2023-02-03T23:20:16.171Z,3.08
2023-02-03T23:22:43.845Z,2.72
2023-02-03T23:25:12.209Z,2.88
2023-02-03T23:27:39.341Z,2.58
2023-02-03T23:30:06.797Z,2.15
2023-02-03T23:32:33.955Z,2.45
2023-02-03T23:35:19.859Z,2.28
2023-02-03T23:37:46.840Z,2.30
2023-02-03T23:40:14.106Z,2.53
2023-02-03T23:42:41.200Z,2.88
2023-02-03T23:45:11.815Z,2.72
2023-02-03T23:47:40.679Z,3.08
2023-02-03T23:50:09.686Z,2.50
2023-02-03T23:52:37.326Z,1.90
2023-02-03T23:55:10.345Z,2.00
2023-02-03T23:57:37.485Z,2.60
